首页
METAR-TAF:

METAR-TAF

机场 :

溫莎國際機場

温莎, 安大略省, 加拿大

纬度: 42-16N, 经度: 082-58W, 海拔: 190米

当前天气观测

该预报发布于36分钟前的08:00 UTC
风速4节,风向东南
温度 -10°C
湿度 85%
气压 1036 hPa
能見度: 14.5公里
天空无云

METAR: CYQG 120800Z AUTO 13004KT 9SM CLR M10/M12 A3058 RMK SLP369

时间: 03:36 (08:36 UTC)

预报

该预报发布于2小时和58分钟前的05:38 UTC
预报有效从12日的 06点(UTC)到 13日的 06点(UTC)
风速3节,风向多变
能見度: 10公里
天空无云
从 12日的 1400点(UTC)
风速10节,风向
能見度: 10公里
多云层高于20000英尺
成为
从 12日的 16点(UTC)到 12日的 18点(UTC)
风速15节,风向,有时为25节阵风
成为
从 12日的 23点(UTC)到 13日的 01点(UTC)
风速12节,风向南转西南
从 13日的 0500点(UTC)
风速7节,风向南转西南
能見度: 10公里
多云层高于26000英尺

TAF: CYQG 120538Z 1206/1306 VRB03KT P6SM SKC FM121400 17010KT P6SM BKN200 BECMG 1216/1218 18015G25KT BECMG 1223/1301 20012KT FM130500 20007KT P6SM BKN260 RMK FCST BASED ON AUTO OBS. NXT FCST BY 121200Z

超过4000个机场的气象观测和天气预报(METAR&TAF报告)。

可查询的气象台以黄色和红色小点在地图上表示。

将鼠标移到小点上方,可查看气象台名称。

然后点击查看天气观测和预报。

如需切换地图:点击带黑十字的绿色按钮放大地图;点击带横线的绿色按钮缩小地图;或者点击绿色箭头查看邻近地区的地图。


METAR-TAF: